KDRT/DRT METAR and TAF weather

Enter ICAO airport designator
Station Type Date Time Source
KDRT METAR 2020/07/08 22:53 UTC NOAA

KDRT 082253Z AUTO 13011G17KT 10SM CLR 40/17 A2975 RMK AO2 PK WND 16028/2236 SLP054 T04000172


Station Type Date Time Source
KDRT Decoded METAR 2020/07/08 22:53 UTC NOAA

DEL RIO INTERNATIONAL AIRPORT, TX, United States (KDRT) 29-22N 100-55W 313M
Jul 08, 2020 - 06:53 PM EDT / 2020.07.08 2253 UTC
Wind: from the SE (130 degrees) at 13 MPH (11 KT) gusting to 20 MPH (17 KT):0
Visibility: 10 mile(s):0
Sky conditions: clear
Temperature: 104.0 F (40.0 C)
Heat index: 106.7 F (41.5 C):1
Dew Point: 63.0 F (17.2 C)
Relative Humidity: 26%
Pressure (altimeter): 29.75 in. Hg (1007 hPa)
ob: KDRT 082253Z AUTO 13011G17KT 10SM CLR 40/17 A2975 RMK AO2 PK WND 16028/2236 SLP054 T04000172
cycle: 23

Station Type Date Time Source
KDRT TAF 2020/07/08 18:40 UTC NOAA

TAF KDRT 081737Z 0818/0918 13012KT P6SM FEW040
FM091200 13011KT P6SM BKN025
FM091600 14013KT P6SM FEW040

Example: see airport list